Time;durP1;ratioP1;P1;durP2;ratioP2;P2;SDS_P1;SDS_P2;PMS_P1;PMS_P2;Temp;Humidity;BMP_temperature;BMP_pressure;BME280_temperature;BME280_humidity;BME280_pressure;Samples;Min_cycle;Max_cycle;Signal;HPM_P1;HPM_P2
2022/03/18 00:01:56;;;;;;;30.57;17.63;;;9.30;99.90;;;;;;5075405;28;20203;-63
2022/03/18 00:04:22;;;;;;;30.97;18.73;;;9.20;99.90;;;;;;5057389;28;20606;-64
2022/03/18 00:06:47;;;;;;;28.80;18.20;;;9.20;99.90;;;;;;5074593;28;20164;-64
2022/03/18 00:09:13;;;;;;;30.57;17.17;;;9.20;99.90;;;;;;5074715;28;20189;-65
2022/03/18 00:11:39;;;;;;;31.60;18.80;;;9.30;99.90;;;;;;5074900;28;20167;-65
2022/03/18 00:14:05;;;;;;;26.10;15.43;;;9.30;99.90;;;;;;5057525;28;20607;-64
2022/03/18 00:16:30;;;;;;;25.67;15.40;;;9.30;99.90;;;;;;5076543;28;20163;-64
2022/03/18 00:19:00;;;;;;;24.80;15.87;;;9.20;99.90;;;;;;5059197;28;20171;-65
2022/03/18 00:21:27;;;;;;;23.63;13.80;;;9.20;99.90;;;;;;5076093;28;20197;-64
2022/03/18 00:23:53;;;;;;;21.77;13.90;;;9.20;99.90;;;;;;5076065;28;20171;-65
2022/03/18 00:26:19;;;;;;;23.60;13.87;;;9.10;99.90;;;;;;5076116;28;20603;-65
2022/03/18 00:28:45;;;;;;;22.37;14.33;;;9.00;99.90;;;;;;5076127;28;20198;-66
2022/03/18 00:31:13;;;;;;;21.00;12.70;;;9.00;99.90;;;;;;5057590;28;20249;-65
2022/03/18 00:33:38;;;;;;;22.07;13.33;;;9.00;99.90;;;;;;5077228;28;20175;-65
2022/03/18 00:36:04;;;;;;;20.63;11.90;;;9.10;99.90;;;;;;5076487;28;20195;-65
2022/03/18 00:38:31;;;;;;;22.70;12.87;;;9.00;99.90;;;;;;5074010;28;20174;-65
2022/03/18 00:40:57;;;;;;;21.33;11.47;;;9.10;99.90;;;;;;5073774;28;20234;-64
2022/03/18 00:43:23;;;;;;;20.93;10.63;;;9.20;99.90;;;;;;5074159;28;20156;-63
2022/03/18 00:45:49;;;;;;;21.13;11.93;;;9.00;99.90;;;;;;5074055;28;20183;-64
2022/03/18 00:53:44;;;;;;;20.47;10.47;;;8.90;99.90;;;;;;5073926;28;20213;-65
2022/03/18 00:56:09;;;;;;;18.40;11.13;;;8.90;99.90;;;;;;5073704;28;20610;-63
2022/03/18 00:58:35;;;;;;;22.87;11.33;;;8.90;99.90;;;;;;5073697;28;20164;-64
2022/03/18 01:01:01;;;;;;;20.40;11.20;;;9.00;99.90;;;;;;5073878;28;20247;-64
2022/03/18 01:03:26;;;;;;;20.10;11.23;;;9.00;99.90;;;;;;5074108;28;20254;-64
2022/03/18 01:05:52;;;;;;;22.37;11.30;;;8.90;99.90;;;;;;5074142;28;20238;-65
2022/03/18 01:08:18;;;;;;;18.93;10.00;;;8.90;99.90;;;;;;5073812;28;20503;-64
2022/03/18 01:10:44;;;;;;;19.40;11.23;;;8.90;99.90;;;;;;5074148;28;20160;-65
2022/03/18 01:13:10;;;;;;;16.30;10.10;;;8.90;99.90;;;;;;5073821;28;20183;-64
2022/03/18 01:15:36;;;;;;;18.70;10.23;;;8.90;99.90;;;;;;5056213;28;20183;-64
2022/03/18 01:18:02;;;;;;;20.40;10.17;;;8.90;99.90;;;;;;5073901;28;20164;-65
2022/03/18 01:20:28;;;;;;;19.40;10.53;;;8.80;99.90;;;;;;5073487;28;20203;-66
2022/03/18 01:22:53;;;;;;;18.93;8.93;;;8.90;99.90;;;;;;5073467;28;20170;-65
2022/03/18 01:25:19;;;;;;;18.80;9.83;;;8.80;99.90;;;;;;5073905;28;20175;-66
2022/03/18 01:27:46;;;;;;;19.17;9.83;;;8.80;99.90;;;;;;5074177;28;20587;-64
2022/03/18 01:30:13;;;;;;;16.60;8.87;;;8.80;99.90;;;;;;5074450;28;20156;-63
2022/03/18 01:32:40;;;;;;;17.53;10.77;;;8.70;99.90;;;;;;5075789;28;20201;-64
2022/03/18 01:35:06;;;;;;;20.73;10.53;;;8.80;99.90;;;;;;5078282;28;20194;-64
2022/03/18 01:37:31;;;;;;;16.30;9.50;;;8.80;99.90;;;;;;5078313;28;20175;-65
2022/03/18 01:39:57;;;;;;;19.63;9.07;;;8.80;99.90;;;;;;5078610;28;20682;-65
2022/03/18 01:42:23;;;;;;;21.03;10.53;;;8.80;99.90;;;;;;5078980;28;20203;-65
2022/03/18 01:44:49;;;;;;;19.33;10.20;;;8.70;99.90;;;;;;5078269;28;20164;-65
2022/03/18 01:47:15;;;;;;;15.90;9.10;;;8.70;99.90;;;;;;5060910;28;20175;-66
2022/03/18 01:49:41;;;;;;;18.97;9.37;;;8.70;99.90;;;;;;5079008;28;20193;-64
2022/03/18 01:52:08;;;;;;;17.27;9.80;;;8.60;99.90;;;;;;5088369;28;20571;-67
2022/03/18 01:54:44;;;;;;;18.67;8.93;;;8.50;99.90;;;;;;5093994;28;20167;-65
2022/03/18 01:57:11;;;;;;;14.50;8.30;;;8.50;99.90;;;;;;5091433;28;20609;-66
2022/03/18 01:59:37;;;;;;;20.97;9.83;;;8.70;99.90;;;;;;5086740;28;20167;-67
2022/03/18 02:02:03;;;;;;;19.23;8.43;;;8.70;99.90;;;;;;5088760;28;20195;-65
2022/03/18 02:04:29;;;;;;;21.50;9.57;;;8.60;99.90;;;;;;5088289;28;20198;-64
2022/03/18 02:06:56;;;;;;;17.87;9.03;;;8.50;99.90;;;;;;5089180;28;20152;-65
2022/03/18 02:09:21;;;;;;;18.60;9.50;;;8.60;99.90;;;;;;5090710;28;20174;-65
2022/03/18 02:11:48;;;;;;;16.70;9.23;;;8.60;99.90;;;;;;5071583;28;20487;-64
2022/03/18 02:14:14;;;;;;;13.83;8.70;;;8.60;99.90;;;;;;5085216;28;20183;-65
2022/03/18 02:16:40;;;;;;;18.93;10.17;;;8.60;99.90;;;;;;5079654;28;20547;-64
2022/03/18 02:19:07;;;;;;;19.43;10.37;;;8.60;99.90;;;;;;5059070;28;20603;-64
2022/03/18 02:21:36;;;;;;;17.33;9.10;;;8.50;99.90;;;;;;5076951;28;20233;-65
2022/03/18 02:24:02;;;;;;;17.67;9.50;;;8.40;99.90;;;;;;5076698;28;20177;-65
2022/03/18 02:26:27;;;;;;;15.70;8.77;;;8.50;99.90;;;;;;5076840;28;20171;-65
2022/03/18 02:28:56;;;;;;;11.90;8.13;;;8.50;99.90;;;;;;5076805;28;20244;-64
2022/03/18 02:31:22;;;;;;;18.17;9.37;;;8.40;99.90;;;;;;5076996;28;20190;-64
2022/03/18 02:33:47;;;;;;;14.27;8.80;;;8.40;99.90;;;;;;5076674;28;20202;-65
2022/03/18 02:36:13;;;;;;;16.70;8.83;;;8.50;99.90;;;;;;5077206;28;20236;-64
2022/03/18 02:38:41;;;;;;;15.13;9.20;;;8.40;99.90;;;;;;5061216;28;20621;-64
2022/03/18 02:41:07;;;;;;;19.60;10.23;;;8.50;99.90;;;;;;5078011;28;20599;-65
2022/03/18 02:43:32;;;;;;;24.00;10.10;;;8.50;99.90;;;;;;5077990;28;20175;-65
2022/03/18 02:45:58;;;;;;;18.27;9.33;;;8.50;99.90;;;;;;5077997;28;20171;-65
2022/03/18 02:48:23;;;;;;;21.20;9.87;;;8.50;99.90;;;;;;5076689;28;20504;-65
2022/03/18 02:50:49;;;;;;;17.47;9.47;;;8.60;99.90;;;;;;5076376;28;20214;-64
2022/03/18 02:53:14;;;;;;;21.87;9.57;;;8.50;99.90;;;;;;5076899;28;20171;-64
2022/03/18 02:55:40;;;;;;;15.77;8.83;;;8.50;99.90;;;;;;5078403;28;20271;-64
2022/03/18 02:58:06;;;;;;;21.13;9.40;;;8.50;99.90;;;;;;5078750;28;20167;-65
2022/03/18 03:00:32;;;;;;;17.53;9.57;;;8.50;99.90;;;;;;5077881;28;20202;-65
2022/03/18 03:02:58;;;;;;;17.30;8.87;;;8.50;99.90;;;;;;5079310;28;20174;-65
2022/03/18 03:08:07;;;;;;;16.03;8.27;;;8.50;99.90;;;;;;5075775;28;20194;-66
2022/03/18 03:10:36;;;;;;;17.43;8.53;;;8.40;99.90;;;;;;5076081;28;20169;-65
2022/03/18 03:13:05;;;;;;;20.10;8.93;;;8.50;99.90;;;;;;5075481;28;20225;-64
2022/03/18 03:15:31;;;;;;;16.80;8.93;;;8.50;99.90;;;;;;5076045;28;20160;-64
2022/03/18 03:17:57;;;;;;;16.73;9.60;;;8.40;99.90;;;;;;5076409;28;20240;-66
2022/03/18 03:20:22;;;;;;;14.57;8.47;;;8.40;99.90;;;;;;5075592;28;20238;-64
2022/03/18 03:22:48;;;;;;;16.73;9.93;;;8.40;99.90;;;;;;5075930;28;20210;-64
2022/03/18 03:25:14;;;;;;;19.50;10.57;;;8.40;99.90;;;;;;5075824;28;20166;-64
2022/03/18 03:27:39;;;;;;;18.07;10.60;;;8.50;99.90;;;;;;5075245;28;20170;-64
2022/03/18 03:30:07;;;;;;;19.00;10.70;;;8.40;99.90;;;;;;5075567;28;20201;-65
2022/03/18 03:32:33;;;;;;;19.03;10.57;;;8.50;99.90;;;;;;5075677;28;20193;-65
2022/03/18 03:34:59;;;;;;;19.00;10.90;;;8.40;99.90;;;;;;5074993;28;20250;-64
2022/03/18 03:37:26;;;;;;;25.27;12.27;;;8.30;99.90;;;;;;5058900;28;20182;-64
2022/03/18 03:39:51;;;;;;;22.07;10.73;;;8.40;99.90;;;;;;5080782;28;20176;-65
2022/03/18 03:42:18;;;;;;;21.80;11.37;;;8.30;99.90;;;;;;5077433;28;20206;-64
2022/03/18 03:44:44;;;;;;;19.57;10.73;;;8.30;99.90;;;;;;5074653;28;20166;-63
2022/03/18 03:47:09;;;;;;;21.97;11.70;;;8.30;99.90;;;;;;5074738;28;20318;-65
2022/03/18 03:49:35;;;;;;;22.33;11.13;;;8.50;99.90;;;;;;5074718;28;20639;-66
2022/03/18 03:52:01;;;;;;;21.13;11.90;;;8.40;99.90;;;;;;5075703;28;20243;-65
2022/03/18 03:54:29;;;;;;;22.23;12.60;;;8.30;99.90;;;;;;5074994;28;20167;-64
2022/03/18 03:56:55;;;;;;;18.30;11.27;;;8.30;99.90;;;;;;5074476;28;20160;-64
2022/03/18 03:59:24;;;;;;;22.00;12.47;;;8.30;99.90;;;;;;5057469;28;20536;-64
2022/03/18 04:01:49;;;;;;;21.43;11.83;;;8.30;99.90;;;;;;5074378;28;20591;-63
2022/03/18 04:04:16;;;;;;;23.83;11.57;;;8.30;99.90;;;;;;5074673;28;20201;-64
2022/03/18 04:06:42;;;;;;;25.17;12.23;;;8.40;99.90;;;;;;5075148;28;20171;-64
2022/03/18 04:09:08;;;;;;;24.13;12.93;;;8.40;99.90;;;;;;5056738;28;20175;-64
2022/03/18 04:11:34;;;;;;;21.10;12.00;;;8.30;99.90;;;;;;5074487;28;20170;-64
2022/03/18 04:13:59;;;;;;;27.80;12.77;;;8.30;99.90;;;;;;5074955;28;20240;-64
2022/03/18 04:16:25;;;;;;;26.63;12.87;;;8.30;99.90;;;;;;5074644;28;20182;-64
2022/03/18 04:18:50;;;;;;;25.90;13.53;;;8.20;99.90;;;;;;5074240;28;20165;-65
2022/03/18 04:21:16;;;;;;;28.10;12.87;;;8.30;99.90;;;;;;5074680;28;20210;-63
2022/03/18 04:23:42;;;;;;;23.27;13.10;;;8.20;99.90;;;;;;5073886;28;20595;-68
2022/03/18 04:26:07;;;;;;;23.40;13.07;;;8.30;99.90;;;;;;5074660;28;20170;-64
2022/03/18 04:28:33;;;;;;;24.53;13.33;;;8.20;99.90;;;;;;5074023;28;20245;-64
2022/03/18 04:30:59;;;;;;;26.90;12.90;;;8.30;99.90;;;;;;5056400;28;20583;-66
2022/03/18 04:33:25;;;;;;;22.77;13.07;;;8.30;99.90;;;;;;5073849;28;20171;-65
2022/03/18 04:35:51;;;;;;;25.03;14.30;;;8.20;99.90;;;;;;5074199;28;20262;-64
2022/03/18 04:38:17;;;;;;;27.43;14.27;;;8.20;99.90;;;;;;5073929;28;20518;-64
2022/03/18 04:40:43;;;;;;;28.47;14.23;;;8.30;99.90;;;;;;5074045;28;20219;-65
2022/03/18 04:43:09;;;;;;;27.80;13.70;;;8.30;99.90;;;;;;5075078;28;20267;-64
2022/03/18 04:45:36;;;;;;;28.33;14.83;;;8.30;99.90;;;;;;5073823;28;20215;-64
2022/03/18 04:48:02;;;;;;;28.63;15.00;;;8.20;99.90;;;;;;5074429;28;20220;-64
2022/03/18 04:50:28;;;;;;;27.57;13.67;;;8.20;99.90;;;;;;5075534;28;20262;-65
2022/03/18 04:52:55;;;;;;;31.00;15.33;;;8.20;99.90;;;;;;5075330;28;20574;-64
2022/03/18 04:55:21;;;;;;;29.17;14.80;;;8.20;99.90;;;;;;5074071;28;20159;-65
2022/03/18 04:57:46;;;;;;;26.63;14.73;;;8.20;99.90;;;;;;5074361;28;20532;-65
2022/03/18 05:00:12;;;;;;;26.23;14.23;;;8.20;99.90;;;;;;5073784;28;20270;-64
2022/03/18 05:02:39;;;;;;;25.60;14.27;;;8.20;99.90;;;;;;5073717;28;20250;-64
2022/03/18 05:05:08;;;;;;;24.63;13.90;;;8.10;99.90;;;;;;5076964;28;20175;-64
2022/03/18 05:07:34;;;;;;;26.17;14.77;;;8.20;99.90;;;;;;5074374;28;20173;-65
2022/03/18 05:10:00;;;;;;;24.97;14.53;;;8.20;99.90;;;;;;5071692;28;20192;-63
2022/03/18 05:12:27;;;;;;;21.57;13.10;;;8.20;99.90;;;;;;5093435;28;20226;-64
2022/03/18 05:14:55;;;;;;;26.60;15.77;;;8.30;99.90;;;;;;5093426;28;20258;-65
2022/03/18 05:17:20;;;;;;;26.67;14.00;;;8.30;99.90;;;;;;5093927;28;20587;-64
2022/03/18 05:19:46;;;;;;;24.33;13.77;;;8.20;99.90;;;;;;5094264;28;20169;-66
2022/03/18 05:22:11;;;;;;;26.90;14.07;;;8.20;99.90;;;;;;5096834;28;20218;-65
2022/03/18 05:24:37;;;;;;;25.70;14.23;;;8.10;99.90;;;;;;5096427;28;20292;-65
2022/03/18 05:27:03;;;;;;;26.07;13.53;;;8.10;99.90;;;;;;5096484;28;20235;-64
2022/03/18 05:29:29;;;;;;;22.63;13.40;;;8.20;99.90;;;;;;5095064;28;20166;-64
2022/03/18 05:31:55;;;;;;;25.63;14.60;;;8.10;99.90;;;;;;5093906;28;20631;-64
2022/03/18 05:34:22;;;;;;;25.17;14.43;;;8.10;99.90;;;;;;5093770;28;20609;-65
2022/03/18 05:36:47;;;;;;;27.40;15.23;;;8.20;99.90;;;;;;5075084;28;20186;-64
2022/03/18 05:39:13;;;;;;;23.20;13.07;;;8.10;99.90;;;;;;5092978;28;20185;-65
2022/03/18 05:41:39;;;;;;;24.13;14.13;;;8.20;99.90;;;;;;5092505;28;20218;-64
2022/03/18 05:44:05;;;;;;;30.50;16.40;;;8.00;99.90;;;;;;5075215;28;20320;-65
2022/03/18 05:46:31;;;;;;;27.17;14.83;;;8.00;99.90;;;;;;5092761;28;20166;-63
2022/03/18 05:48:57;;;;;;;26.70;14.60;;;8.00;99.90;;;;;;5074983;28;20178;-65
2022/03/18 05:51:22;;;;;;;38.20;16.27;;;8.10;99.90;;;;;;5093117;28;20249;-65
2022/03/18 05:53:48;;;;;;;30.20;16.13;;;8.10;99.90;;;;;;5092996;28;20197;-63
2022/03/18 05:58:59;;;;;;;26.40;14.27;;;8.30;99.90;;;;;;5092920;28;20171;-64
2022/03/18 06:01:25;;;;;;;29.30;16.87;;;8.00;99.90;;;;;;5092599;28;20646;-63
2022/03/18 06:03:51;;;;;;;37.90;18.30;;;8.00;99.90;;;;;;5092639;28;20601;-65
2022/03/18 06:06:17;;;;;;;31.73;17.07;;;8.10;99.90;;;;;;5093248;28;20166;-64
2022/03/18 06:14:11;;;;;;;32.07;17.20;;;8.10;99.90;;;;;;5092811;28;20208;-63
2022/03/18 06:16:38;;;;;;;29.27;16.23;;;8.10;99.90;;;;;;5092657;28;20159;-64
2022/03/18 06:19:04;;;;;;;33.10;18.10;;;8.20;99.90;;;;;;5095282;28;20209;-64
2022/03/18 06:21:29;;;;;;;33.73;18.27;;;8.10;99.90;;;;;;5096254;28;20193;-64
2022/03/18 06:23:55;;;;;;;32.50;18.70;;;8.10;99.90;;;;;;5096790;28;20576;-64
2022/03/18 06:26:22;;;;;;;30.70;17.70;;;8.00;99.90;;;;;;5096529;28;20508;-64
2022/03/18 06:28:48;;;;;;;36.07;20.87;;;8.10;99.90;;;;;;5096753;28;20246;-63
2022/03/18 06:31:13;;;;;;;35.63;19.13;;;8.10;99.90;;;;;;5098929;28;20585;-64
2022/03/18 06:33:44;;;;;;;34.57;18.43;;;8.00;99.90;;;;;;5097030;28;20177;-64
2022/03/18 06:36:11;;;;;;;36.53;18.63;;;8.00;99.90;;;;;;5096700;28;20170;-64
2022/03/18 06:38:37;;;;;;;34.50;18.80;;;8.00;99.90;;;;;;5096263;28;20171;-64
2022/03/18 06:41:02;;;;;;;32.23;18.83;;;8.00;99.90;;;;;;5096263;28;20232;-64
2022/03/18 06:43:28;;;;;;;29.53;17.03;;;8.10;99.90;;;;;;5096444;28;20162;-64
2022/03/18 06:45:54;;;;;;;33.53;19.40;;;8.20;99.90;;;;;;5096435;28;20509;-64
2022/03/18 06:48:19;;;;;;;37.03;20.00;;;8.20;99.90;;;;;;5096582;28;20165;-63
2022/03/18 06:50:45;;;;;;;37.30;18.83;;;8.20;99.90;;;;;;5078010;28;20182;-64
2022/03/18 06:53:10;;;;;;;34.30;18.23;;;8.30;99.90;;;;;;5096116;28;20277;-63
2022/03/18 06:55:36;;;;;;;30.00;17.53;;;8.30;99.90;;;;;;5077959;28;20284;-64
2022/03/18 06:58:02;;;;;;;32.43;18.50;;;8.20;99.90;;;;;;5095842;28;20162;-64
2022/03/18 07:00:28;;;;;;;34.47;20.57;;;8.20;99.90;;;;;;5095753;28;20169;-64
2022/03/18 07:02:53;;;;;;;32.50;18.90;;;8.20;99.90;;;;;;5096465;28;20168;-63
2022/03/18 07:05:19;;;;;;;31.10;17.43;;;8.40;99.90;;;;;;5095882;28;20167;-64
2022/03/18 07:07:45;;;;;;;31.97;18.30;;;8.30;99.90;;;;;;5077573;28;20181;-63
2022/03/18 07:10:12;;;;;;;27.77;17.63;;;8.20;99.90;;;;;;5096088;28;20166;-65
2022/03/18 07:12:38;;;;;;;29.73;18.30;;;8.10;99.90;;;;;;5095683;28;20169;-64
2022/03/18 07:15:05;;;;;;;29.10;16.63;;;8.10;99.90;;;;;;5096194;28;20244;-64
2022/03/18 07:20:15;;;;;;;34.57;18.17;;;8.20;99.90;;;;;;5095213;28;20172;-63
2022/03/18 07:22:41;;;;;;;27.63;17.27;;;8.20;99.90;;;;;;5095337;28;20569;-63
2022/03/18 07:25:07;;;;;;;35.37;19.77;;;8.20;99.90;;;;;;5095737;28;20156;-64
2022/03/18 07:27:33;;;;;;;41.57;21.30;;;8.20;99.90;;;;;;5095230;28;20553;-65
2022/03/18 07:29:59;;;;;;;31.60;17.60;;;8.30;99.90;;;;;;5093683;28;20157;-64
2022/03/18 07:32:24;;;;;;;35.33;18.03;;;8.40;99.90;;;;;;5095749;28;20436;-65
2022/03/18 07:34:50;;;;;;;42.30;21.70;;;8.40;99.90;;;;;;5095148;28;20168;-63
2022/03/18 07:37:16;;;;;;;31.43;18.63;;;8.30;99.90;;;;;;5096000;28;20181;-64
2022/03/18 07:39:42;;;;;;;33.93;18.57;;;8.30;99.90;;;;;;5094591;28;20594;-64
2022/03/18 07:42:07;;;;;;;27.77;16.23;;;8.40;99.90;;;;;;5095421;28;20201;-66
2022/03/18 07:44:36;;;;;;;27.80;16.57;;;8.20;99.90;;;;;;5096518;28;20178;-64
2022/03/18 07:47:02;;;;;;;26.63;15.87;;;8.20;99.90;;;;;;5099226;28;20166;-67
2022/03/18 07:49:28;;;;;;;31.50;17.10;;;8.40;99.90;;;;;;5097801;28;20166;-65
2022/03/18 07:51:53;;;;;;;32.13;15.63;;;8.20;99.90;;;;;;5098667;28;20171;-64
2022/03/18 07:54:19;;;;;;;30.50;15.90;;;8.30;99.90;;;;;;5098808;28;20169;-63
2022/03/18 07:56:44;;;;;;;29.67;16.90;;;8.30;99.90;;;;;;5098262;28;20487;-64
2022/03/18 07:59:10;;;;;;;33.80;18.90;;;8.30;99.90;;;;;;5094517;28;20159;-64
2022/03/18 08:01:38;;;;;;;27.53;16.17;;;8.50;99.90;;;;;;5094792;28;20197;-64
2022/03/18 08:04:04;;;;;;;27.23;15.50;;;8.40;99.90;;;;;;5095316;28;20173;-64
2022/03/18 08:06:29;;;;;;;32.43;17.50;;;8.50;99.90;;;;;;5100382;28;20531;-64
2022/03/18 08:08:55;;;;;;;28.70;15.70;;;8.50;99.90;;;;;;5100334;28;20177;-64
2022/03/18 08:11:20;;;;;;;31.47;15.63;;;8.60;99.90;;;;;;5095481;28;20177;-63
2022/03/18 08:13:49;;;;;;;29.03;16.03;;;8.50;99.90;;;;;;5094513;28;20162;-64
2022/03/18 08:16:15;;;;;;;32.13;15.73;;;8.60;99.90;;;;;;5094544;28;20155;-64
2022/03/18 08:18:41;;;;;;;32.00;15.57;;;8.60;99.90;;;;;;5094608;28;20240;-63
2022/03/18 08:21:07;;;;;;;31.40;17.80;;;8.70;99.90;;;;;;5094311;28;20230;-64
2022/03/18 08:23:34;;;;;;;31.13;17.57;;;8.80;99.90;;;;;;5093951;28;20154;-64
2022/03/18 08:25:59;;;;;;;29.53;16.37;;;9.10;99.90;;;;;;5094567;28;20609;-64
2022/03/18 08:28:25;;;;;;;25.70;15.63;;;8.90;99.90;;;;;;5094268;28;20163;-66
2022/03/18 08:30:51;;;;;;;25.23;15.50;;;8.90;99.90;;;;;;5094198;28;20151;-65
2022/03/18 08:33:17;;;;;;;31.73;18.93;;;8.90;99.90;;;;;;5076000;28;20185;-65
2022/03/18 08:35:42;;;;;;;36.07;20.53;;;8.80;99.90;;;;;;5075499;28;20182;-67
2022/03/18 08:38:09;;;;;;;29.43;17.07;;;8.90;99.90;;;;;;5093891;28;20171;-64
2022/03/18 08:40:36;;;;;;;25.93;16.43;;;8.80;99.90;;;;;;5093164;28;20279;-65
2022/03/18 08:43:08;;;;;;;29.17;16.93;;;9.20;99.90;;;;;;5093945;28;20166;-65
2022/03/18 08:45:34;;;;;;;30.77;17.27;;;9.20;99.90;;;;;;5093850;28;20480;-64
2022/03/18 08:48:00;;;;;;;27.30;17.27;;;9.30;99.90;;;;;;5075815;28;20181;-64
2022/03/18 08:50:26;;;;;;;28.50;17.00;;;9.30;99.90;;;;;;5076379;28;20220;-64
2022/03/18 08:52:53;;;;;;;31.03;17.77;;;9.30;99.90;;;;;;5094142;28;20191;-65
2022/03/18 08:55:20;;;;;;;32.57;16.83;;;9.40;99.90;;;;;;5094148;28;20505;-66
2022/03/18 08:57:47;;;;;;;32.43;17.30;;;9.50;99.90;;;;;;5093648;28;20198;-64
2022/03/18 09:00:17;;;;;;;26.60;16.73;;;9.50;99.90;;;;;;5093530;28;20165;-66
2022/03/18 09:02:44;;;;;;;28.60;17.40;;;9.60;99.90;;;;;;5093200;28;20221;-65
2022/03/18 09:05:11;;;;;;;28.83;17.23;;;9.50;99.90;;;;;;5075536;28;20187;-65
2022/03/18 09:07:38;;;;;;;26.20;17.00;;;9.30;99.90;;;;;;5075405;28;20175;-65
2022/03/18 09:10:08;;;;;;;29.90;17.37;;;9.70;99.90;;;;;;5093671;28;20280;-64
2022/03/18 09:12:33;;;;;;;27.77;16.33;;;9.80;99.90;;;;;;5075258;28;20527;-64
2022/03/18 09:15:02;;;;;;;33.30;17.17;;;9.80;99.90;;;;;;5093236;28;20269;-65
2022/03/18 09:17:28;;;;;;;29.07;15.47;;;9.70;99.90;;;;;;5075256;28;20177;-66
2022/03/18 09:19:53;;;;;;;26.73;15.87;;;9.70;99.90;;;;;;5093445;28;20166;-63
2022/03/18 09:22:19;;;;;;;28.93;16.83;;;9.90;99.90;;;;;;5094898;28;20197;-66
2022/03/18 09:24:46;;;;;;;24.37;16.40;;;10.30;99.90;;;;;;5075026;28;20607;-65
2022/03/18 09:27:14;;;;;;;28.27;17.03;;;10.20;99.90;;;;;;5093681;28;20211;-64
2022/03/18 09:29:40;;;;;;;30.07;16.50;;;10.30;99.90;;;;;;5093753;28;20155;-65
2022/03/18 09:32:06;;;;;;;27.27;16.30;;;10.10;99.90;;;;;;5093619;28;20174;-65
2022/03/18 09:34:32;;;;;;;33.13;18.10;;;10.50;99.90;;;;;;5075535;28;20532;-64
2022/03/18 09:36:58;;;;;;;28.93;15.03;;;10.70;99.90;;;;;;5093264;28;20183;-64
2022/03/18 09:39:25;;;;;;;28.27;15.90;;;10.60;99.90;;;;;;5093617;28;20609;-64
2022/03/18 09:41:51;;;;;;;28.30;17.53;;;10.70;99.90;;;;;;5093221;28;20314;-64
2022/03/18 09:44:17;;;;;;;25.07;16.23;;;10.30;99.90;;;;;;5093529;28;20167;-64
2022/03/18 09:46:46;;;;;;;31.80;17.53;;;10.30;99.90;;;;;;5093295;28;20159;-65
2022/03/18 09:49:17;;;;;;;30.80;15.97;;;10.40;99.90;;;;;;5093150;28;20156;-65
2022/03/18 09:51:44;;;;;;;25.57;15.43;;;10.20;99.90;;;;;;5092907;28;20155;-65
2022/03/18 09:54:10;;;;;;;28.77;15.30;;;10.20;99.90;;;;;;5096277;28;20666;-64
2022/03/18 09:56:41;;;;;;;28.57;17.03;;;10.50;99.90;;;;;;5096976;28;20158;-64
2022/03/18 09:59:08;;;;;;;26.90;16.63;;;10.70;99.90;;;;;;5079020;28;20265;-64
2022/03/18 10:01:33;;;;;;;28.37;16.23;;;10.90;99.90;;;;;;5097085;28;20527;-64
2022/03/18 10:04:05;;;;;;;29.97;17.13;;;10.80;99.90;;;;;;5078878;28;20175;-65
2022/03/18 10:06:32;;;;;;;29.47;17.17;;;10.90;99.90;;;;;;5097345;28;20177;-65
2022/03/18 10:08:59;;;;;;;26.87;16.80;;;11.00;99.90;;;;;;5098233;28;20159;-64
2022/03/18 10:11:28;;;;;;;31.00;17.47;;;11.00;99.90;;;;;;5079817;28;20174;-64
2022/03/18 10:14:02;;;;;;;30.90;18.03;;;11.00;99.90;;;;;;5097358;28;20718;-64
2022/03/18 10:16:38;;;;;;;30.50;17.23;;;11.20;99.90;;;;;;5080967;28;20170;-65
2022/03/18 10:19:21;;;;;;;28.47;16.47;;;11.30;99.90;;;;;;5098473;28;20162;-64
2022/03/18 10:21:53;;;;;;;25.60;16.60;;;11.20;99.90;;;;;;5097784;28;20191;-65
2022/03/18 10:24:23;;;;;;;24.07;16.40;;;11.40;99.90;;;;;;5096635;28;20527;-65
2022/03/18 10:26:51;;;;;;;28.80;16.37;;;11.30;99.90;;;;;;5097677;28;20167;-64
2022/03/18 10:29:17;;;;;;;31.80;16.93;;;11.00;99.90;;;;;;5098786;28;20462;-64
2022/03/18 10:31:58;;;;;;;30.03;16.87;;;11.30;99.90;;;;;;5099726;28;20166;-64
2022/03/18 10:37:23;;;;;;;31.80;18.53;;;11.70;99.90;;;;;;5097915;28;20170;-64
2022/03/18 10:39:50;;;;;;;32.63;19.83;;;11.50;99.90;;;;;;5097657;28;20247;-64
2022/03/18 10:42:18;;;;;;;34.17;18.20;;;11.70;99.90;;;;;;5097964;28;20217;-64
2022/03/18 10:44:59;;;;;;;25.47;16.53;;;11.80;99.90;;;;;;5098244;28;20151;-64
2022/03/18 10:47:37;;;;;;;29.30;17.30;;;11.90;99.90;;;;;;5099288;28;20190;-66
2022/03/18 10:50:11;;;;;;;27.07;17.20;;;12.00;99.90;;;;;;5097632;28;20161;-65
2022/03/18 10:53:00;;;;;;;28.60;16.57;;;12.30;99.90;;;;;;5097870;28;20288;-66
2022/03/18 10:55:36;;;;;;;23.53;15.87;;;12.20;99.90;;;;;;5099787;28;20163;-64
2022/03/18 10:58:11;;;;;;;26.90;15.90;;;12.00;99.90;;;;;;5081125;28;20579;-66
2022/03/18 11:00:51;;;;;;;25.27;16.07;;;11.90;99.90;;;;;;5098131;28;20220;-65
2022/03/18 11:03:18;;;;;;;26.83;15.20;;;11.90;99.90;;;;;;5081099;28;20263;-65
2022/03/18 11:05:45;;;;;;;26.43;16.10;;;12.00;99.90;;;;;;5097281;28;20171;-66
2022/03/18 11:08:24;;;;;;;25.37;15.63;;;12.00;99.90;;;;;;5097679;28;20247;-66
2022/03/18 11:11:14;;;;;;;28.60;16.10;;;12.00;99.90;;;;;;5097736;28;20159;-66
2022/03/18 11:14:06;;;;;;;25.43;15.80;;;12.30;99.90;;;;;;5096941;28;20155;-66
2022/03/18 11:16:36;;;;;;;27.43;15.97;;;12.30;99.90;;;;;;5096264;28;20159;-66
2022/03/18 11:19:05;;;;;;;26.20;16.87;;;12.40;99.90;;;;;;5095733;28;20595;-66
2022/03/18 11:21:41;;;;;;;27.87;16.93;;;12.50;99.90;;;;;;5096045;28;20202;-66
2022/03/18 11:24:22;;;;;;;29.87;17.27;;;12.50;99.90;;;;;;5096120;28;20246;-67
2022/03/18 11:26:50;;;;;;;31.53;16.63;;;12.50;99.90;;;;;;5098293;28;20194;-65
2022/03/18 11:29:26;;;;;;;25.97;15.87;;;12.40;99.90;;;;;;5097874;28;20213;-64
2022/03/18 11:32:09;;;;;;;29.03;16.30;;;12.30;99.90;;;;;;5098086;28;20165;-66
2022/03/18 11:34:50;;;;;;;26.83;15.43;;;12.50;99.90;;;;;;5096072;28;20167;-65
2022/03/18 11:37:17;;;;;;;25.60;15.73;;;12.60;99.90;;;;;;5094910;28;20190;-65
2022/03/18 11:39:43;;;;;;;28.57;16.33;;;12.60;99.90;;;;;;5077618;28;20178;-65
2022/03/18 11:42:09;;;;;;;30.23;16.23;;;13.00;99.90;;;;;;5095217;28;20218;-65
2022/03/18 11:44:45;;;;;;;27.07;15.23;;;13.00;99.90;;;;;;5095729;28;20163;-65
2022/03/18 11:47:20;;;;;;;25.23;16.13;;;12.80;99.90;;;;;;5094861;28;20150;-65
2022/03/18 11:49:46;;;;;;;24.17;14.97;;;13.00;99.90;;;;;;5095335;28;20168;-67
2022/03/18 11:52:12;;;;;;;29.43;16.50;;;13.10;99.90;;;;;;5094956;28;20162;-66
2022/03/18 11:54:55;;;;;;;27.13;15.73;;;12.80;99.90;;;;;;5095220;28;20212;-65
2022/03/18 11:57:36;;;;;;;25.23;15.50;;;12.90;99.90;;;;;;5094994;28;20155;-65
2022/03/18 12:00:07;;;;;;;24.20;15.53;;;12.90;99.90;;;;;;5095363;28;20216;-66
2022/03/18 12:02:33;;;;;;;28.97;17.07;;;12.90;99.90;;;;;;5094804;28;20198;-64
2022/03/18 12:05:00;;;;;;;26.90;15.87;;;13.00;99.90;;;;;;5094629;28;20508;-65
2022/03/18 12:07:31;;;;;;;24.30;14.83;;;13.00;99.90;;;;;;5077052;28;20174;-65
2022/03/18 12:10:02;;;;;;;31.27;15.03;;;13.10;99.90;;;;;;5096234;28;20155;-67
2022/03/18 12:12:41;;;;;;;27.57;16.00;;;13.20;99.90;;;;;;5078487;28;20227;-67
2022/03/18 12:15:17;;;;;;;25.83;16.23;;;13.00;99.90;;;;;;5094628;28;20202;-65
2022/03/18 12:17:43;;;;;;;24.10;14.80;;;12.80;99.90;;;;;;5093994;28;20163;-68
2022/03/18 12:20:30;;;;;;;28.83;15.87;;;13.30;99.90;;;;;;5076084;28;20179;-66
2022/03/18 12:22:58;;;;;;;29.03;16.27;;;13.10;99.90;;;;;;5093894;28;20539;-65
2022/03/18 12:25:24;;;;;;;27.83;17.00;;;13.00;99.90;;;;;;5095556;28;20155;-66
2022/03/18 12:27:52;;;;;;;32.63;17.17;;;12.80;99.90;;;;;;5094123;28;20198;-66
2022/03/18 12:30:19;;;;;;;24.77;15.97;;;12.80;99.90;;;;;;5094590;28;20166;-66
2022/03/18 12:32:59;;;;;;;29.07;16.47;;;12.50;99.90;;;;;;5094273;28;20465;-66
2022/03/18 12:35:30;;;;;;;27.73;15.90;;;12.40;99.90;;;;;;5094150;28;20171;-65
2022/03/18 12:38:11;;;;;;;26.60;15.77;;;12.70;99.90;;;;;;5093848;28;20258;-67
2022/03/18 12:40:41;;;;;;;24.70;15.20;;;12.80;99.90;;;;;;5093923;28;20258;-66
2022/03/18 12:43:07;;;;;;;29.27;15.63;;;13.10;99.90;;;;;;5094330;28;20502;-65
2022/03/18 12:45:34;;;;;;;26.67;15.50;;;13.00;99.90;;;;;;5094027;28;20178;-64
2022/03/18 12:48:03;;;;;;;30.17;16.20;;;13.10;99.90;;;;;;5093883;28;20170;-67
2022/03/18 12:50:33;;;;;;;24.70;15.70;;;13.30;99.90;;;;;;5093522;28;20189;-67
2022/03/18 12:52:59;;;;;;;29.40;16.03;;;13.30;99.90;;;;;;5094274;28;20158;-66
2022/03/18 12:55:25;;;;;;;26.70;17.13;;;13.30;99.90;;;;;;5095191;28;20173;-64
2022/03/18 12:57:51;;;;;;;25.03;16.10;;;13.30;99.90;;;;;;5096300;28;20602;-66
2022/03/18 13:00:18;;;;;;;24.03;16.00;;;12.90;99.90;;;;;;5078231;28;20174;-65